createdAt,value
2024-05-09T00:01:44.078Z,25.19
2024-05-09T00:04:13.857Z,25.22
2024-05-09T00:06:43.770Z,25.28
2024-05-09T00:09:13.494Z,25.25
2024-05-09T00:11:43.301Z,25.26
2024-05-09T00:14:13.577Z,25.22
2024-05-09T00:16:43.886Z,25.20
2024-05-09T00:19:13.814Z,25.22
2024-05-09T00:21:46.574Z,25.19
2024-05-09T00:24:16.326Z,25.19
2024-05-09T00:26:46.123Z,25.13
2024-05-09T00:29:16.144Z,25.22
2024-05-09T00:31:46.386Z,25.12
2024-05-09T00:34:16.211Z,25.13
2024-05-09T00:36:46.056Z,25.11
2024-05-09T00:39:15.828Z,25.16
2024-05-09T00:41:45.701Z,25.17
2024-05-09T00:44:15.585Z,25.23
2024-05-09T00:46:46.231Z,25.23
2024-05-09T00:49:16.622Z,25.25
2024-05-09T00:51:46.502Z,25.28
2024-05-09T00:54:16.372Z,25.30
2024-05-09T00:56:46.108Z,25.29
2024-05-09T00:59:15.876Z,25.31
2024-05-09T01:01:46.295Z,25.30
2024-05-09T01:04:16.634Z,25.31
2024-05-09T01:06:46.468Z,25.24
2024-05-09T01:09:16.275Z,25.26
2024-05-09T01:11:46.275Z,25.24
2024-05-09T01:14:16.266Z,25.23
2024-05-09T01:16:47.152Z,25.18
2024-05-09T01:19:28.440Z,25.21
2024-05-09T01:21:58.813Z,25.21
2024-05-09T01:24:28.622Z,25.23
2024-05-09T01:26:58.419Z,25.23
2024-05-09T01:29:28.438Z,25.21
2024-05-09T01:32:00.742Z,25.17
2024-05-09T01:34:30.695Z,25.15
2024-05-09T01:37:00.754Z,25.15
2024-05-09T01:39:30.619Z,25.18
2024-05-09T01:42:00.615Z,25.22
2024-05-09T01:44:30.422Z,25.25
2024-05-09T01:47:00.247Z,25.25
2024-05-09T01:49:30.140Z,25.24
2024-05-09T01:52:00.168Z,25.24
2024-05-09T01:54:29.996Z,25.30
2024-05-09T01:56:59.727Z,25.28
2024-05-09T01:59:29.530Z,25.27
2024-05-09T02:01:59.661Z,25.29
2024-05-09T02:04:30.245Z,25.25
2024-05-09T02:07:00.808Z,25.23
2024-05-09T02:09:30.628Z,25.21
2024-05-09T02:12:00.663Z,25.21
2024-05-09T02:14:30.743Z,25.24
2024-05-09T02:17:00.802Z,25.27
2024-05-09T02:19:31.275Z,25.24
2024-05-09T02:22:01.469Z,25.22
2024-05-09T02:24:31.265Z,25.18
2024-05-09T02:27:01.040Z,25.15
2024-05-09T02:29:30.865Z,25.15
2024-05-09T02:32:00.818Z,25.22
2024-05-09T02:34:30.742Z,25.24
2024-05-09T02:37:00.592Z,25.33
2024-05-09T02:39:30.470Z,25.35
2024-05-09T02:42:00.265Z,25.35
2024-05-09T02:44:30.149Z,25.37
2024-05-09T02:46:59.962Z,25.37
2024-05-09T02:49:29.963Z,25.37
2024-05-09T02:51:59.806Z,25.35
2024-05-09T02:54:29.599Z,25.32
2024-05-09T02:56:59.357Z,25.38
2024-05-09T02:59:29.198Z,25.44
2024-05-09T03:01:59.088Z,25.56
2024-05-09T03:04:29.238Z,25.55
2024-05-09T03:06:59.525Z,25.61
2024-05-09T03:09:29.640Z,25.62
2024-05-09T03:11:59.627Z,25.72
2024-05-09T03:14:30.257Z,25.76
2024-05-09T03:17:00.114Z,25.72
2024-05-09T03:19:29.975Z,25.73
2024-05-09T03:22:00.744Z,25.79
2024-05-09T03:24:30.541Z,25.84
2024-05-09T03:27:00.240Z,25.84
2024-05-09T03:29:30.088Z,25.77
2024-05-09T03:32:00.708Z,25.80
2024-05-09T03:34:30.617Z,25.91
2024-05-09T03:37:00.388Z,25.87
2024-05-09T03:39:30.184Z,25.81
2024-05-09T03:41:59.943Z,25.92
2024-05-09T03:44:29.782Z,25.90
2024-05-09T03:46:59.690Z,25.90
2024-05-09T03:49:29.513Z,25.94
2024-05-09T03:51:59.339Z,25.91
2024-05-09T03:54:29.279Z,25.93
2024-05-09T03:56:59.104Z,25.95
2024-05-09T03:59:29.311Z,25.84
2024-05-09T04:01:59.289Z,25.78
2024-05-09T04:04:29.312Z,25.89
2024-05-09T04:06:59.191Z,25.83
2024-05-09T04:09:31.997Z,25.86
2024-05-09T04:12:02.128Z,25.85
2024-05-09T04:14:32.017Z,25.81
2024-05-09T04:17:01.982Z,25.75
2024-05-09T04:19:32.552Z,25.77
2024-05-09T04:22:02.685Z,25.81
2024-05-09T04:24:32.904Z,25.83
2024-05-09T04:27:02.720Z,25.88
2024-05-09T04:29:32.690Z,25.96
2024-05-09T04:32:02.764Z,26.10
2024-05-09T04:34:32.687Z,26.15
2024-05-09T04:37:02.573Z,26.19
2024-05-09T04:39:32.749Z,26.17
2024-05-09T04:42:02.983Z,26.15
2024-05-09T04:44:32.906Z,26.14
2024-05-09T04:47:03.040Z,26.13
2024-05-09T04:49:32.905Z,26.14
2024-05-09T04:52:02.763Z,26.15
2024-05-09T04:54:36.296Z,26.17
2024-05-09T04:57:06.095Z,26.21
2024-05-09T04:59:35.978Z,26.21
2024-05-09T05:02:06.050Z,26.23
2024-05-09T05:04:36.300Z,26.26
2024-05-09T05:07:06.354Z,26.25
2024-05-09T05:09:36.225Z,26.19
2024-05-09T05:12:25.876Z,26.23
2024-05-09T05:14:56.183Z,26.25
2024-05-09T05:17:26.032Z,26.24
2024-05-09T05:19:56.413Z,26.24
2024-05-09T05:22:26.167Z,26.19
2024-05-09T05:24:55.874Z,26.22
2024-05-09T05:27:25.718Z,26.24
2024-05-09T05:29:55.494Z,26.23
2024-05-09T05:32:25.682Z,26.22
2024-05-09T05:34:55.695Z,26.15
2024-05-09T05:37:26.418Z,26.09
2024-05-09T05:39:56.238Z,26.07
2024-05-09T05:42:26.328Z,26.03
2024-05-09T05:44:56.906Z,26.00
2024-05-09T05:47:26.879Z,25.99
2024-05-09T05:49:56.693Z,26.01
2024-05-09T05:52:27.268Z,26.03
2024-05-09T05:54:57.313Z,25.96
2024-05-09T05:57:27.223Z,25.87
2024-05-09T05:59:57.008Z,25.94
2024-05-09T06:02:26.982Z,25.96
2024-05-09T06:04:57.687Z,25.90
2024-05-09T06:07:27.639Z,25.84
2024-05-09T06:09:58.734Z,25.85
2024-05-09T06:12:28.758Z,25.83
2024-05-09T06:14:58.714Z,25.81
2024-05-09T06:17:29.306Z,25.74
2024-05-09T06:19:59.310Z,25.63
2024-05-09T06:22:29.076Z,25.68
2024-05-09T06:24:59.049Z,25.70
2024-05-09T06:27:28.850Z,25.70
2024-05-09T06:29:58.597Z,25.68
2024-05-09T06:32:28.948Z,25.66
2024-05-09T06:34:58.848Z,25.50
2024-05-09T06:37:28.605Z,25.35
2024-05-09T06:39:59.047Z,25.18
2024-05-09T06:42:28.812Z,25.14
2024-05-09T06:44:58.644Z,25.04
2024-05-09T06:47:28.630Z,24.95
2024-05-09T06:49:58.560Z,24.86
2024-05-09T06:52:28.710Z,24.81
2024-05-09T06:54:58.623Z,24.71
2024-05-09T06:57:31.403Z,24.62
2024-05-09T07:00:02.272Z,24.56
2024-05-09T07:02:33.980Z,24.50
2024-05-09T07:05:04.350Z,24.46
2024-05-09T07:07:34.304Z,24.43
2024-05-09T07:10:06.270Z,24.36
2024-05-09T07:12:37.757Z,24.31
2024-05-09T07:15:07.837Z,24.25
2024-05-09T07:17:37.770Z,24.22
2024-05-09T07:20:11.830Z,24.18
2024-05-09T07:22:45.861Z,24.14
2024-05-09T07:25:15.698Z,24.11
2024-05-09T07:27:45.392Z,24.15
2024-05-09T07:30:22.940Z,24.08
2024-05-09T07:32:58.200Z,24.05
2024-05-09T07:35:28.274Z,24.02
2024-05-09T07:37:58.250Z,23.98
2024-05-09T07:40:34.784Z,23.97
2024-05-09T07:43:07.020Z,23.88
2024-05-09T07:45:48.369Z,24.01
2024-05-09T07:52:45.935Z,24.12
2024-05-09T07:53:51.015Z,24.14
2024-05-09T07:56:24.367Z,24.20
2024-05-09T07:58:55.761Z,24.27
2024-05-09T08:01:27.683Z,24.29
2024-05-09T08:03:58.027Z,24.35
2024-05-09T08:06:29.011Z,24.38
2024-05-09T08:09:05.291Z,24.41
2024-05-09T08:11:38.537Z,24.44
2024-05-09T08:14:08.273Z,24.46
2024-05-09T08:16:38.048Z,24.50
2024-05-09T08:19:08.514Z,24.50
2024-05-09T08:21:38.733Z,24.52
2024-05-09T08:24:08.728Z,24.53
2024-05-09T08:26:38.554Z,24.56
2024-05-09T08:29:08.306Z,24.55
2024-05-09T08:31:41.195Z,24.56
2024-05-09T08:34:15.081Z,24.59
2024-05-09T08:36:45.248Z,24.58
2024-05-09T08:39:15.199Z,24.58
2024-05-09T08:41:45.198Z,24.59
2024-05-09T08:44:15.014Z,24.59
2024-05-09T08:46:45.005Z,24.53
2024-05-09T08:49:14.910Z,24.58
2024-05-09T08:51:45.397Z,24.54
2024-05-09T08:54:15.282Z,24.53
2024-05-09T08:56:48.720Z,24.55
2024-05-09T08:59:26.347Z,24.52
2024-05-09T09:01:56.497Z,24.50
2024-05-09T09:04:26.546Z,24.49
2024-05-09T09:06:58.140Z,24.48
2024-05-09T09:09:28.644Z,24.48
2024-05-09T09:11:59.536Z,24.51
2024-05-09T09:14:29.289Z,24.51
2024-05-09T09:17:01.758Z,24.51
2024-05-09T09:19:31.655Z,24.49
2024-05-09T09:22:01.566Z,24.51
2024-05-09T09:24:31.327Z,24.45
2024-05-09T09:27:01.109Z,24.47
2024-05-09T09:29:31.525Z,24.48
2024-05-09T09:32:10.496Z,24.47
2024-05-09T09:34:40.419Z,24.48
2024-05-09T09:37:11.752Z,24.48
2024-05-09T09:39:43.548Z,24.48
2024-05-09T09:42:13.638Z,24.45
2024-05-09T09:44:47.842Z,24.44
2024-05-09T09:47:20.997Z,24.43
2024-05-09T09:49:50.805Z,24.42
2024-05-09T09:52:20.607Z,24.40
2024-05-09T09:54:50.871Z,24.36
2024-05-09T09:57:21.516Z,24.33
2024-05-09T09:59:51.447Z,24.31
2024-05-09T10:02:21.518Z,24.33
2024-05-09T10:04:51.854Z,24.33
2024-05-09T10:07:22.486Z,24.30
2024-05-09T10:09:56.972Z,24.30
2024-05-09T10:12:27.357Z,24.27
2024-05-09T10:14:57.294Z,24.26
2024-05-09T10:17:27.134Z,24.23
2024-05-09T10:20:14.900Z,24.25
2024-05-09T10:22:52.086Z,24.24
2024-05-09T10:25:22.093Z,24.23
2024-05-09T10:27:57.535Z,24.19
2024-05-09T10:30:34.150Z,24.18
2024-05-09T10:33:06.149Z,24.18
2024-05-09T10:35:35.992Z,24.21
2024-05-09T10:38:08.960Z,24.19
2024-05-09T10:40:38.887Z,24.15
2024-05-09T10:43:08.763Z,24.11
2024-05-09T10:45:38.705Z,24.12
2024-05-09T10:48:09.087Z,24.09
2024-05-09T10:50:41.768Z,24.09
2024-05-09T10:53:11.504Z,24.09
2024-05-09T10:55:41.257Z,24.06
2024-05-09T10:58:19.842Z,24.03
2024-05-09T11:00:49.760Z,24.05
2024-05-09T11:03:23.514Z,24.02
2024-05-09T11:05:57.072Z,23.99
2024-05-09T11:08:27.380Z,23.99
2024-05-09T11:10:57.595Z,24.03
2024-05-09T11:13:35.568Z,24.03
2024-05-09T11:16:06.308Z,24.06
2024-05-09T11:18:39.032Z,24.06
2024-05-09T11:21:14.588Z,24.06
2024-05-09T11:23:44.335Z,24.07
2024-05-09T11:26:16.812Z,24.06
2024-05-09T11:28:47.127Z,24.04
2024-05-09T11:31:17.179Z,24.06
2024-05-09T11:33:50.572Z,24.04
2024-05-09T11:36:20.392Z,24.04
2024-05-09T11:38:50.227Z,24.02
2024-05-09T11:41:20.400Z,24.02
2024-05-09T11:43:50.110Z,24.01
2024-05-09T11:46:20.242Z,24.00
2024-05-09T11:48:50.124Z,24.00
2024-05-09T11:51:20.032Z,24.00
2024-05-09T11:53:50.333Z,24.00
2024-05-09T11:56:20.629Z,23.97
2024-05-09T11:58:51.156Z,23.99
2024-05-09T12:01:27.549Z,23.98
2024-05-09T12:03:58.067Z,23.96
2024-05-09T12:06:28.142Z,23.95
2024-05-09T12:08:58.553Z,23.98
2024-05-09T12:11:28.637Z,23.97
2024-05-09T12:13:59.099Z,23.96
2024-05-09T12:16:29.212Z,23.93
2024-05-09T12:18:59.140Z,23.93
2024-05-09T12:21:28.968Z,23.92
2024-05-09T12:23:58.786Z,23.90
2024-05-09T12:26:29.195Z,23.92
2024-05-09T12:28:58.978Z,23.91
2024-05-09T12:31:28.854Z,23.88
2024-05-09T12:33:58.837Z,23.88
2024-05-09T12:36:32.740Z,23.86
2024-05-09T12:39:02.680Z,23.86
2024-05-09T12:41:32.398Z,23.87
2024-05-09T12:44:02.144Z,23.86
2024-05-09T12:46:33.452Z,23.85
2024-05-09T12:49:03.597Z,23.83
2024-05-09T12:51:33.990Z,23.83
2024-05-09T12:54:04.060Z,23.84
2024-05-09T12:56:35.331Z,23.84
2024-05-09T12:59:05.198Z,23.81
2024-05-09T13:01:35.199Z,23.83
2024-05-09T13:04:05.338Z,23.83
2024-05-09T13:06:35.155Z,23.81
2024-05-09T13:09:04.941Z,23.80
2024-05-09T13:11:34.755Z,23.77
2024-05-09T13:14:04.532Z,23.75
2024-05-09T13:16:34.969Z,23.75
2024-05-09T13:19:04.850Z,23.74
2024-05-09T13:21:34.621Z,23.73
2024-05-09T13:24:04.424Z,23.74
2024-05-09T13:26:34.170Z,23.73
2024-05-09T13:29:03.925Z,23.72
2024-05-09T13:31:33.800Z,23.73
2024-05-09T13:34:04.157Z,23.70
2024-05-09T13:36:34.586Z,23.69
2024-05-09T13:39:05.394Z,23.68
2024-05-09T13:41:35.594Z,23.69
2024-05-09T13:44:06.366Z,23.67
2024-05-09T13:46:36.446Z,23.67
2024-05-09T13:49:07.717Z,23.65
2024-05-09T13:51:39.698Z,23.64
2024-05-09T13:54:10.127Z,23.63
2024-05-09T13:56:40.407Z,23.62
2024-05-09T13:59:10.737Z,23.63
2024-05-09T14:01:41.052Z,23.63
2024-05-09T14:04:11.645Z,23.62
2024-05-09T14:06:42.182Z,23.59
2024-05-09T14:09:12.015Z,23.60
2024-05-09T14:11:41.872Z,23.59
2024-05-09T14:14:11.628Z,23.58
2024-05-09T14:16:42.012Z,23.58
2024-05-09T14:19:12.134Z,23.55
2024-05-09T14:21:42.027Z,23.53
2024-05-09T14:24:11.776Z,23.53
2024-05-09T14:26:41.928Z,23.54
2024-05-09T14:29:12.133Z,23.53
2024-05-09T14:31:42.594Z,23.53
2024-05-09T14:34:12.668Z,23.55
2024-05-09T14:36:42.782Z,23.54
2024-05-09T14:39:12.635Z,23.57
2024-05-09T14:41:42.703Z,23.54
2024-05-09T14:44:14.164Z,23.55
2024-05-09T14:46:44.058Z,23.55
2024-05-09T14:49:13.966Z,23.53
2024-05-09T14:51:45.626Z,23.53
2024-05-09T14:54:15.438Z,23.54
2024-05-09T14:56:45.195Z,23.51
2024-05-09T14:59:14.926Z,23.51
2024-05-09T15:01:44.782Z,23.49
2024-05-09T15:04:14.865Z,23.49
2024-05-09T15:06:45.607Z,23.50
2024-05-09T15:09:16.115Z,23.48
2024-05-09T15:11:47.792Z,23.47
2024-05-09T15:14:18.083Z,23.48
2024-05-09T15:16:50.154Z,23.47
2024-05-09T15:19:20.598Z,23.45
2024-05-09T15:21:51.185Z,23.43
2024-05-09T15:24:21.489Z,23.42
2024-05-09T15:26:51.484Z,23.41
2024-05-09T15:29:21.472Z,23.41
2024-05-09T15:31:51.252Z,23.42
2024-05-09T15:34:21.128Z,23.42
2024-05-09T15:36:52.696Z,23.40
2024-05-09T15:39:22.531Z,23.38
2024-05-09T15:41:54.530Z,23.35
2024-05-09T15:44:24.440Z,23.37
2024-05-09T15:46:57.815Z,23.34
2024-05-09T15:49:27.662Z,23.32
2024-05-09T15:51:57.576Z,23.34
2024-05-09T15:54:27.325Z,23.32
2024-05-09T15:56:57.515Z,23.34
2024-05-09T15:59:27.229Z,23.33
2024-05-09T16:01:58.537Z,23.33
2024-05-09T16:04:28.729Z,23.32
2024-05-09T16:06:58.762Z,23.32
2024-05-09T16:09:28.704Z,23.30
2024-05-09T16:11:58.642Z,23.29
2024-05-09T16:14:28.585Z,23.29
2024-05-09T16:16:58.870Z,23.25
2024-05-09T16:19:28.620Z,23.23
2024-05-09T16:21:59.797Z,23.23
2024-05-09T16:24:29.708Z,23.23
2024-05-09T16:26:59.884Z,23.25
2024-05-09T16:29:29.671Z,23.25
2024-05-09T16:31:59.588Z,23.23
2024-05-09T16:34:30.338Z,23.25
2024-05-09T16:37:00.214Z,23.25
2024-05-09T16:39:30.072Z,23.23
2024-05-09T16:42:00.302Z,23.21
2024-05-09T16:44:31.930Z,23.20
2024-05-09T16:47:03.348Z,23.18
2024-05-09T16:49:33.223Z,23.18
2024-05-09T16:52:03.063Z,23.17
2024-05-09T16:54:32.966Z,23.17
2024-05-09T16:57:02.715Z,23.18
2024-05-09T16:59:32.477Z,23.18
2024-05-09T17:02:02.425Z,23.18
2024-05-09T17:04:32.383Z,23.18
2024-05-09T17:07:02.327Z,23.16
2024-05-09T17:09:32.175Z,23.15
2024-05-09T17:12:01.941Z,23.14
2024-05-09T17:14:31.794Z,23.14
2024-05-09T17:17:01.696Z,23.14
2024-05-09T17:19:32.060Z,23.12
2024-05-09T17:22:01.922Z,23.13
2024-05-09T17:24:32.081Z,23.14
2024-05-09T17:27:02.949Z,23.12
2024-05-09T17:29:33.433Z,23.12
2024-05-09T17:32:03.330Z,23.10
2024-05-09T17:34:33.379Z,23.13
2024-05-09T17:37:03.289Z,23.11
2024-05-09T17:39:33.227Z,23.10
2024-05-09T17:42:03.051Z,23.12
2024-05-09T17:44:32.804Z,23.11
2024-05-09T17:47:02.637Z,23.12
2024-05-09T17:49:32.628Z,23.09
2024-05-09T17:52:02.515Z,23.09
2024-05-09T17:54:32.288Z,23.09
2024-05-09T17:57:02.077Z,23.08
2024-05-09T17:59:31.820Z,23.08
2024-05-09T18:02:01.772Z,23.08
2024-05-09T18:04:33.455Z,23.07
2024-05-09T18:07:03.644Z,23.07
2024-05-09T18:09:33.465Z,23.05
2024-05-09T18:12:03.471Z,23.06
2024-05-09T18:14:33.257Z,23.05
2024-05-09T18:17:03.758Z,23.06
2024-05-09T18:19:33.751Z,23.08
2024-05-09T18:22:04.725Z,23.08
2024-05-09T18:24:35.093Z,23.09
2024-05-09T18:27:05.539Z,23.07
2024-05-09T18:29:35.934Z,23.09
2024-05-09T18:32:06.304Z,23.08
2024-05-09T18:34:36.097Z,23.07
2024-05-09T18:37:05.911Z,23.07
2024-05-09T18:39:35.745Z,23.08
2024-05-09T18:42:05.556Z,23.05
2024-05-09T18:44:35.232Z,23.02
2024-05-09T18:47:06.112Z,23.03
2024-05-09T18:49:36.049Z,23.02
2024-05-09T18:52:06.023Z,23.02
2024-05-09T18:54:35.849Z,23.02
2024-05-09T18:57:05.689Z,23.03
2024-05-09T18:59:35.451Z,23.05
2024-05-09T19:02:05.404Z,23.04
2024-05-09T19:04:35.329Z,23.04
2024-05-09T19:07:05.878Z,23.05
2024-05-09T19:09:36.963Z,23.04
2024-05-09T19:12:08.117Z,23.04
2024-05-09T19:14:37.890Z,23.05
2024-05-09T19:17:08.087Z,23.04
2024-05-09T19:19:38.556Z,23.03
2024-05-09T19:22:11.968Z,23.01
2024-05-09T19:24:42.559Z,22.98
2024-05-09T19:27:12.606Z,22.93
2024-05-09T19:29:42.700Z,22.93
2024-05-09T19:32:12.631Z,22.90
2024-05-09T19:34:42.384Z,22.92
2024-05-09T19:39:41.367Z,22.91
2024-05-09T19:42:11.194Z,22.92
2024-05-09T19:47:10.069Z,22.86
2024-05-09T19:49:39.953Z,22.87
2024-05-09T19:52:09.974Z,22.87
2024-05-09T19:54:39.827Z,22.85
2024-05-09T19:57:09.612Z,22.86
2024-05-09T19:59:39.689Z,22.86
2024-05-09T20:02:10.140Z,22.85
2024-05-09T20:04:40.026Z,22.84
2024-05-09T20:07:10.129Z,22.86
2024-05-09T20:09:40.413Z,22.82
2024-05-09T20:12:11.259Z,22.77
2024-05-09T20:14:41.068Z,22.74
2024-05-09T20:17:10.987Z,22.75
2024-05-09T20:19:40.849Z,22.72
2024-05-09T20:22:10.939Z,22.70
2024-05-09T20:24:40.915Z,22.67
2024-05-09T20:27:10.757Z,22.64
2024-05-09T20:29:40.764Z,22.64
2024-05-09T20:32:10.658Z,22.60
2024-05-09T20:34:40.532Z,22.56
2024-05-09T20:37:11.053Z,22.56
2024-05-09T20:39:41.004Z,22.55
2024-05-09T20:42:10.803Z,22.52
2024-05-09T20:44:40.561Z,22.49
2024-05-09T20:47:11.234Z,22.48
2024-05-09T20:49:41.061Z,22.47
2024-05-09T20:52:10.936Z,22.46
2024-05-09T20:54:40.849Z,22.45
2024-05-09T20:57:10.591Z,22.45
2024-05-09T20:59:41.013Z,22.34
2024-05-09T21:02:10.870Z,22.26
2024-05-09T21:04:40.978Z,22.18
2024-05-09T21:07:11.164Z,22.19
2024-05-09T21:09:41.320Z,22.22
2024-05-09T21:12:11.336Z,22.18
2024-05-09T21:14:41.158Z,22.13
2024-05-09T21:17:10.967Z,22.14
2024-05-09T21:19:40.965Z,22.14
2024-05-09T21:22:10.714Z,22.13
2024-05-09T21:24:41.161Z,22.19
2024-05-09T21:27:11.393Z,22.15
2024-05-09T21:29:41.240Z,22.18
2024-05-09T21:32:11.074Z,22.22
2024-05-09T21:34:40.918Z,22.26
2024-05-09T21:37:11.035Z,22.32
2024-05-09T21:39:40.918Z,22.34
2024-05-09T21:42:10.728Z,22.33
2024-05-09T21:44:40.487Z,22.37
2024-05-09T21:47:10.282Z,22.42
2024-05-09T21:49:40.189Z,22.43
2024-05-09T21:52:10.924Z,22.45
2024-05-09T21:54:40.998Z,22.48
2024-05-09T21:57:11.621Z,22.51
2024-05-09T21:59:43.161Z,22.51
2024-05-09T22:02:13.762Z,22.56
2024-05-09T22:04:44.059Z,22.58
2024-05-09T22:07:14.196Z,22.64
2024-05-09T22:09:46.868Z,22.65
2024-05-09T22:12:16.709Z,22.68
2024-05-09T22:14:46.447Z,22.73
2024-05-09T22:17:16.216Z,22.71
2024-05-09T22:19:51.218Z,22.77
2024-05-09T22:22:22.354Z,22.80
2024-05-09T22:24:53.396Z,22.80
2024-05-09T22:27:23.820Z,22.84
2024-05-09T22:29:53.725Z,22.92
2024-05-09T22:32:23.548Z,23.01
2024-05-09T22:34:53.417Z,23.10
2024-05-09T22:37:23.221Z,23.16
2024-05-09T22:39:53.141Z,23.23
2024-05-09T22:42:22.985Z,23.30
2024-05-09T22:44:52.768Z,23.39
2024-05-09T22:47:23.153Z,23.42
2024-05-09T22:49:53.416Z,23.46
2024-05-09T22:52:23.443Z,23.50
2024-05-09T22:54:53.317Z,23.57
2024-05-09T22:57:23.290Z,23.60
2024-05-09T22:59:53.068Z,23.68
2024-05-09T23:02:22.931Z,23.69
2024-05-09T23:04:52.874Z,23.78
2024-05-09T23:07:23.143Z,23.82
2024-05-09T23:09:53.937Z,23.81
2024-05-09T23:12:24.366Z,23.85
2024-05-09T23:14:54.127Z,23.90
2024-05-09T23:17:23.952Z,23.91
2024-05-09T23:19:53.736Z,23.93
2024-05-09T23:22:23.512Z,23.94
2024-05-09T23:24:53.953Z,23.97
2024-05-09T23:27:23.773Z,24.00
2024-05-09T23:29:53.565Z,24.03
2024-05-09T23:32:23.609Z,24.05
2024-05-09T23:34:53.452Z,24.07
2024-05-09T23:37:23.788Z,24.04
2024-05-09T23:39:53.640Z,24.07
2024-05-09T23:42:23.430Z,24.06
2024-05-09T23:44:55.354Z,24.07
2024-05-09T23:47:25.426Z,24.07
2024-05-09T23:49:55.215Z,24.09
2024-05-09T23:52:25.077Z,24.10
2024-05-09T23:54:55.059Z,24.12
2024-05-09T23:57:25.181Z,24.14
2024-05-09T23:59:55.431Z,24.15
